Time;durP1;ratioP1;P1;durP2;ratioP2;P2;SDS_P1;SDS_P2;PMS_P1;PMS_P2;Temp;Humidity;BMP_temperature;BMP_pressure;BME280_temperature;BME280_humidity;BME280_pressure;Samples;Min_cycle;Max_cycle;Signal;HPM_P1;HPM_P2
2023/07/18 00:01:13;;;;;;;34.67;31.33;;;18.00;99.90;;;;;;5060816;28;20103;-63
2023/07/18 00:03:39;;;;;;;33.55;30.48;;;17.90;99.90;;;;;;5067950;28;20041;-63
2023/07/18 00:06:05;;;;;;;33.38;30.48;;;18.00;99.90;;;;;;5062253;28;20032;-63
2023/07/18 00:08:31;;;;;;;35.10;31.48;;;17.90;99.90;;;;;;5066403;28;20098;-63
2023/07/18 00:10:56;;;;;;;33.63;30.50;;;18.10;99.90;;;;;;5058653;28;20037;-63
2023/07/18 00:13:23;;;;;;;32.92;29.85;;;17.90;99.90;;;;;;5064990;28;20037;-63
2023/07/18 00:15:48;;;;;;;33.63;30.20;;;17.90;99.90;;;;;;5040823;28;20043;-63
2023/07/18 00:18:14;;;;;;;29.88;27.30;;;18.00;99.90;;;;;;5068556;28;20041;-63
2023/07/18 00:20:40;;;;;;;28.88;26.30;;;18.10;99.90;;;;;;5062439;28;20040;-63
2023/07/18 00:23:09;;;;;;;28.67;25.88;;;18.10;99.90;;;;;;5050011;28;20043;-63
2023/07/18 00:25:36;;;;;;;28.42;25.75;;;18.00;99.90;;;;;;5056839;28;20087;-63
2023/07/18 00:28:03;;;;;;;29.02;26.13;;;18.10;99.90;;;;;;5050595;28;20029;-63
2023/07/18 00:30:29;;;;;;;30.17;27.17;;;18.00;99.90;;;;;;5057994;28;20036;-63
2023/07/18 00:32:56;;;;;;;30.98;27.88;;;18.20;99.90;;;;;;5064957;28;20522;-63
2023/07/18 00:35:22;;;;;;;30.00;27.30;;;18.20;99.90;;;;;;5035636;28;20459;-63
2023/07/18 00:37:48;;;;;;;30.55;27.88;;;18.10;99.90;;;;;;5055835;28;20044;-63
2023/07/18 00:40:14;;;;;;;30.15;27.48;;;18.10;99.90;;;;;;5054484;28;20059;-63
2023/07/18 00:42:43;;;;;;;30.63;27.63;;;18.10;99.90;;;;;;5058739;28;20425;-63
2023/07/18 00:45:09;;;;;;;31.92;28.90;;;18.00;99.90;;;;;;5070410;28;20075;-63
2023/07/18 00:47:37;;;;;;;31.83;28.92;;;18.00;99.90;;;;;;5045233;28;20065;-63
2023/07/18 00:50:14;;;;;;;31.98;29.08;;;18.00;99.90;;;;;;5072353;28;20040;-63
2023/07/18 00:52:43;;;;;;;32.50;29.52;;;18.00;99.90;;;;;;5052170;28;20056;-63
2023/07/18 00:55:10;;;;;;;32.78;29.80;;;18.10;99.90;;;;;;5054575;28;20056;-63
2023/07/18 00:57:38;;;;;;;30.88;28.10;;;18.10;99.90;;;;;;5062495;28;20052;-63
2023/07/18 01:00:11;;;;;;;31.92;29.20;;;18.10;99.90;;;;;;5071264;28;20625;-63
2023/07/18 01:02:38;;;;;;;31.45;28.50;;;18.10;99.90;;;;;;5053496;28;20451;-63
2023/07/18 01:05:04;;;;;;;29.83;27.20;;;18.10;99.90;;;;;;5050497;28;20045;-63
2023/07/18 01:07:29;;;;;;;30.23;27.42;;;18.00;99.90;;;;;;5059990;28;20493;-63
2023/07/18 01:10:18;;;;;;;30.73;28.13;;;17.90;99.90;;;;;;5063727;28;20174;-63
2023/07/18 01:12:44;;;;;;;29.40;27.05;;;18.00;99.90;;;;;;5069463;28;20284;-63
2023/07/18 01:15:13;;;;;;;30.92;28.13;;;17.90;99.90;;;;;;5071336;28;20470;-63
2023/07/18 01:17:42;;;;;;;29.98;27.20;;;18.00;98.00;;;;;;5058617;28;20037;-63
2023/07/18 01:20:12;;;;;;;31.58;28.45;;;17.90;84.50;;;;;;5053773;28;20033;-63
2023/07/18 01:22:38;;;;;;;30.27;27.42;;;17.90;67.90;;;;;;5070549;28;20059;-63
2023/07/18 01:25:04;;;;;;;30.80;27.77;;;17.80;52.70;;;;;;5053859;28;20072;-63
2023/07/18 01:27:30;;;;;;;31.05;28.30;;;17.90;41.40;;;;;;5063296;28;20036;-63
2023/07/18 01:29:55;;;;;;;31.92;29.23;;;17.80;29.40;;;;;;5052738;28;20049;-63
2023/07/18 01:32:21;;;;;;;32.47;29.60;;;17.90;22.50;;;;;;5053621;28;20368;-63
2023/07/18 01:34:46;;;;;;;34.03;31.00;;;17.80;18.20;;;;;;5052420;28;20071;-63
2023/07/18 01:37:15;;;;;;;32.47;29.77;;;17.80;15.20;;;;;;5062096;28;20040;-63
2023/07/18 01:39:41;;;;;;;33.95;31.23;;;17.80;8.40;;;;;;5065358;28;20044;-63
2023/07/18 01:42:06;;;;;;;34.35;31.38;;;17.70;9.80;;;;;;5070531;28;20037;-63
2023/07/18 01:44:33;;;;;;;34.72;31.58;;;17.60;1.00;;;;;;5067545;28;20048;-63
2023/07/18 01:46:59;;;;;;;36.30;32.83;;;17.50;2.30;;;;;;5059716;28;20044;-63
2023/07/18 01:49:24;;;;;;;37.08;33.67;;;17.30;1.00;;;;;;5065395;28;20146;-63
2023/07/18 01:51:50;;;;;;;36.10;32.95;;;17.30;26.10;;;;;;5069051;28;20040;-63
2023/07/18 01:54:16;;;;;;;36.25;33.15;;;17.20;66.40;;;;;;5071856;28;20042;-63
2023/07/18 01:56:41;;;;;;;35.42;32.42;;;17.10;95.00;;;;;;5063165;28;20047;-63
2023/07/18 01:59:07;;;;;;;36.25;33.15;;;17.00;99.90;;;;;;5059797;28;20057;-63
2023/07/18 02:01:33;;;;;;;35.55;32.58;;;17.00;99.90;;;;;;5071910;28;20040;-63
2023/07/18 02:03:59;;;;;;;34.38;31.58;;;17.00;99.90;;;;;;5070235;28;20106;-63
2023/07/18 02:06:25;;;;;;;34.45;31.55;;;16.90;99.90;;;;;;5067675;28;20033;-63
2023/07/18 02:08:51;;;;;;;36.15;32.92;;;16.90;99.90;;;;;;5063111;28;20029;-63
2023/07/18 02:11:17;;;;;;;37.60;34.10;;;16.90;99.90;;;;;;5070277;28;20048;-63
2023/07/18 02:13:43;;;;;;;35.97;32.75;;;16.80;99.90;;;;;;5068614;28;20044;-64
2023/07/18 02:16:08;;;;;;;36.45;33.15;;;16.70;99.90;;;;;;5058508;28;20074;-63
2023/07/18 02:18:34;;;;;;;36.10;33.03;;;16.80;99.90;;;;;;5067765;28;20062;-63
2023/07/18 02:20:59;;;;;;;37.67;34.40;;;16.80;99.90;;;;;;5069741;28;20292;-63
2023/07/18 02:23:25;;;;;;;36.30;33.17;;;16.90;99.90;;;;;;5057144;28;20041;-63
2023/07/18 02:25:51;;;;;;;36.97;33.80;;;17.10;99.90;;;;;;5058471;28;20040;-63
2023/07/18 02:28:16;;;;;;;35.78;32.58;;;16.80;99.90;;;;;;5061571;28;20041;-63
2023/07/18 02:30:42;;;;;;;35.80;32.70;;;17.10;99.90;;;;;;5069741;28;20036;-63
2023/07/18 02:33:08;;;;;;;36.15;33.08;;;16.90;99.90;;;;;;5071359;28;20162;-63
2023/07/18 02:35:33;;;;;;;37.38;33.70;;;16.90;99.90;;;;;;5069678;28;20119;-63
2023/07/18 02:37:59;;;;;;;36.03;32.83;;;17.00;99.90;;;;;;5069138;28;20048;-63
2023/07/18 02:40:24;;;;;;;34.25;31.40;;;17.00;1.00;;;;;;5068908;28;20051;-63
2023/07/18 02:42:50;;;;;;;33.45;30.65;;;16.90;1.00;;;;;;5052285;28;20067;-63
2023/07/18 02:45:16;;;;;;;34.17;31.35;;;16.70;1.00;;;;;;5063763;28;20045;-63
2023/07/18 02:47:41;;;;;;;34.67;31.88;;;16.80;1.00;;;;;;5077653;28;20124;-63
2023/07/18 02:50:08;;;;;;;34.17;31.30;;;17.00;1.00;;;;;;5070888;28;20064;-63
2023/07/18 02:52:34;;;;;;;34.58;31.67;;;16.50;1.00;;;;;;5071948;28;20082;-63
2023/07/18 02:54:59;;;;;;;36.47;33.30;;;16.50;1.00;;;;;;5033139;28;20105;-63
2023/07/18 02:57:25;;;;;;;35.10;32.17;;;16.50;1.00;;;;;;5058401;28;20116;-63
2023/07/18 02:59:51;;;;;;;34.63;31.83;;;16.50;1.00;;;;;;5070157;28;20498;-63
2023/07/18 03:02:17;;;;;;;34.70;31.55;;;16.40;1.00;;;;;;5070160;28;20049;-63
2023/07/18 03:04:46;;;;;;;35.92;32.97;;;16.40;1.00;;;;;;5070699;28;20462;-63
2023/07/18 03:07:13;;;;;;;33.45;30.67;;;16.50;1.00;;;;;;5069091;28;20029;-63
2023/07/18 03:09:39;;;;;;;32.78;29.90;;;16.50;1.00;;;;;;5070966;28;20422;-63
2023/07/18 03:12:06;;;;;;;34.53;31.55;;;16.50;1.00;;;;;;5070906;28;20131;-63
2023/07/18 03:14:31;;;;;;;35.10;32.40;;;16.50;1.00;;;;;;5070836;28;20478;-63
2023/07/18 03:16:57;;;;;;;33.42;30.73;;;16.60;1.00;;;;;;5068803;28;20131;-63
2023/07/18 03:19:23;;;;;;;34.67;31.77;;;16.50;1.00;;;;;;5064189;28;20491;-63
2023/07/18 03:21:48;;;;;;;33.75;31.05;;;16.40;1.00;;;;;;5066007;28;20040;-63
2023/07/18 03:24:14;;;;;;;30.25;27.85;;;16.40;1.00;;;;;;5051792;28;20087;-63
2023/07/18 03:26:40;;;;;;;29.30;26.70;;;16.50;1.00;;;;;;5053018;28;20430;-63
2023/07/18 03:29:06;;;;;;;28.92;26.58;;;16.60;1.00;;;;;;5068113;28;20037;-63
2023/07/18 03:31:33;;;;;;;28.83;26.42;;;16.70;1.00;;;;;;5056094;28;20493;-63
2023/07/18 03:33:59;;;;;;;29.13;26.35;;;16.70;5.10;;;;;;5050153;28;20060;-63
2023/07/18 03:36:26;;;;;;;26.55;24.55;;;16.80;10.20;;;;;;5034743;28;20041;-63
2023/07/18 03:38:51;;;;;;;24.88;22.58;;;16.90;14.90;;;;;;5043505;28;20087;-63
2023/07/18 03:41:17;;;;;;;27.90;25.50;;;17.10;6.40;;;;;;5051291;28;20033;-63
2023/07/18 03:43:42;;;;;;;27.17;25.08;;;17.30;1.00;;;;;;5054755;28;20111;-63
2023/07/18 03:46:08;;;;;;;26.70;24.67;;;17.20;1.00;;;;;;5066760;28;20604;-63
2023/07/18 03:48:34;;;;;;;27.58;25.42;;;17.20;1.00;;;;;;5068744;28;20045;-63
2023/07/18 03:51:04;;;;;;;32.17;29.13;;;17.50;1.00;;;;;;5072398;28;20071;-63
2023/07/18 03:53:30;;;;;;;32.78;29.98;;;17.30;1.00;;;;;;5050243;28;20045;-63
2023/07/18 03:56:02;;;;;;;31.13;28.45;;;17.30;1.00;;;;;;5051122;28;20045;-63
2023/07/18 03:58:28;;;;;;;29.30;27.02;;;17.40;1.00;;;;;;5068010;28;20044;-63
2023/07/18 04:00:53;;;;;;;31.20;28.75;;;17.90;1.00;;;;;;5060613;28;20111;-63
2023/07/18 04:03:19;;;;;;;30.83;27.90;;;17.50;1.00;;;;;;5049847;28;20048;-63
2023/07/18 04:05:45;;;;;;;29.70;27.40;;;17.50;1.00;;;;;;5059090;28;20032;-63
2023/07/18 04:08:10;;;;;;;33.08;30.40;;;17.50;1.00;;;;;;5064289;28;20129;-63
2023/07/18 04:10:36;;;;;;;34.00;31.30;;;17.50;1.00;;;;;;5058394;28;20068;-63
2023/07/18 04:13:02;;;;;;;36.33;33.28;;;17.40;1.00;;;;;;5058348;28;20040;-63
2023/07/18 04:15:27;;;;;;;37.30;34.10;;;17.20;99.90;;;;;;5052060;28;20052;-63
2023/07/18 04:17:53;;;;;;;36.95;34.20;;;16.90;99.90;;;;;;5050130;28;20579;-63
2023/07/18 04:20:19;;;;;;;36.47;33.47;;;17.10;99.90;;;;;;5055060;28;20048;-63
2023/07/18 04:22:45;;;;;;;37.35;34.15;;;16.70;99.90;;;;;;5047642;28;20047;-63
2023/07/18 04:25:11;;;;;;;38.08;34.58;;;16.60;1.00;;;;;;5050245;28;20048;-63
2023/07/18 04:27:36;;;;;;;38.70;35.33;;;16.60;1.00;;;;;;5069698;28;20044;-63
2023/07/18 04:30:02;;;;;;;37.33;34.30;;;16.70;1.00;;;;;;5067629;28;20044;-63
2023/07/18 04:32:28;;;;;;;37.30;33.95;;;16.70;1.00;;;;;;5049460;28;20037;-63
2023/07/18 04:34:54;;;;;;;37.13;34.22;;;16.80;40.80;;;;;;5065838;28;20390;-63
2023/07/18 04:37:20;;;;;;;36.22;33.13;;;16.80;96.80;;;;;;5051109;28;20029;-63
2023/07/18 04:39:46;;;;;;;38.28;35.08;;;16.90;99.90;;;;;;5065119;28;20049;-63
2023/07/18 04:42:11;;;;;;;37.25;34.25;;;16.90;99.90;;;;;;5032446;28;20040;-63
2023/07/18 04:44:37;;;;;;;37.85;34.85;;;16.90;99.90;;;;;;5060141;28;20159;-63
2023/07/18 04:47:03;;;;;;;39.72;36.08;;;16.80;99.90;;;;;;5065916;28;20047;-63
2023/07/18 04:49:29;;;;;;;39.35;36.17;;;16.70;99.90;;;;;;5068860;28;20429;-63
2023/07/18 04:51:55;;;;;;;41.35;37.83;;;16.60;99.90;;;;;;5066409;28;20044;-63
2023/07/18 04:54:20;;;;;;;41.90;38.10;;;16.60;99.90;;;;;;5059709;28;20091;-63
2023/07/18 04:56:46;;;;;;;40.38;37.08;;;16.60;99.90;;;;;;5056560;28;20037;-63
2023/07/18 04:59:11;;;;;;;43.75;40.28;;;16.70;1.00;;;;;;5060996;28;20079;-63
2023/07/18 05:01:39;;;;;;;41.72;38.13;;;16.70;1.00;;;;;;5059774;28;20048;-63
2023/07/18 05:04:05;;;;;;;42.03;38.47;;;16.90;1.00;;;;;;5063112;28;20079;-63
2023/07/18 05:06:30;;;;;;;40.47;37.15;;;16.90;99.90;;;;;;5069565;28;20067;-63
2023/07/18 05:08:56;;;;;;;40.15;37.08;;;17.30;99.90;;;;;;5054196;28;20043;-63
2023/07/18 05:11:21;;;;;;;41.47;37.78;;;17.50;99.90;;;;;;5066891;28;20068;-63
2023/07/18 05:13:47;;;;;;;39.00;36.00;;;17.20;99.90;;;;;;5065474;28;20482;-63
2023/07/18 05:16:13;;;;;;;42.75;39.38;;;17.10;1.00;;;;;;5061905;28;20386;-63
2023/07/18 05:18:38;;;;;;;40.90;37.50;;;17.30;1.00;;;;;;5061401;28;20549;-63
2023/07/18 05:21:04;;;;;;;36.72;33.70;;;17.50;39.40;;;;;;5064974;28;20497;-63
2023/07/18 05:23:30;;;;;;;40.20;37.05;;;17.70;99.90;;;;;;5054895;28;20103;-63
2023/07/18 05:25:56;;;;;;;37.10;33.85;;;17.70;99.90;;;;;;5060531;28;20202;-63
2023/07/18 05:28:22;;;;;;;37.20;34.28;;;17.80;99.90;;;;;;5051613;28;20462;-63
2023/07/18 05:30:47;;;;;;;29.60;27.30;;;17.70;1.00;;;;;;5068751;28;20064;-63
2023/07/18 05:33:13;;;;;;;28.02;25.58;;;17.80;1.00;;;;;;5048355;28;20053;-63
2023/07/18 05:35:39;;;;;;;24.80;22.80;;;17.90;1.00;;;;;;5068548;28;20098;-63
2023/07/18 05:38:05;;;;;;;21.98;20.10;;;18.30;1.00;;;;;;5060687;28;20069;-63
2023/07/18 05:40:30;;;;;;;19.02;17.52;;;18.20;1.00;;;;;;5053515;28;20049;-63
2023/07/18 05:42:56;;;;;;;19.52;17.98;;;17.90;99.90;;;;;;5052950;28;20456;-63
2023/07/18 05:45:21;;;;;;;19.08;17.55;;;18.50;99.90;;;;;;5055666;28;20040;-63
2023/07/18 05:47:47;;;;;;;19.02;17.20;;;18.60;1.00;;;;;;5068235;28;20040;-63
2023/07/18 05:50:13;;;;;;;19.15;17.63;;;18.60;99.90;;;;;;5048631;28;20078;-63
2023/07/18 05:52:39;;;;;;;18.20;16.70;;;18.60;99.90;;;;;;5064785;28;20024;-63
2023/07/18 05:55:05;;;;;;;17.02;15.80;;;18.70;14.20;;;;;;5048511;28;20090;-63
2023/07/18 05:57:31;;;;;;;13.35;12.25;;;18.70;1.00;;;;;;5065150;28;20067;-63
2023/07/18 05:59:57;;;;;;;15.07;13.88;;;18.80;99.90;;;;;;5048714;28;20103;-63
2023/07/18 06:02:22;;;;;;;11.63;10.52;;;18.80;99.90;;;;;;5051697;28;20039;-63
2023/07/18 06:04:48;;;;;;;13.68;12.57;;;18.80;27.30;;;;;;5069519;28;20063;-63
2023/07/18 06:07:15;;;;;;;11.68;10.57;;;19.00;1.00;;;;;;5060444;28;20599;-63
2023/07/18 06:09:42;;;;;;;11.90;11.00;;;19.00;99.90;;;;;;5061331;28;20072;-63
2023/07/18 06:12:08;;;;;;;11.63;10.63;;;19.10;99.90;;;;;;5047530;28;20052;-63
2023/07/18 06:14:34;;;;;;;12.05;10.88;;;19.10;99.90;;;;;;5067406;28;20041;-63
2023/07/18 06:16:59;;;;;;;12.60;11.70;;;19.20;53.80;;;;;;5068521;28;20050;-63
2023/07/18 06:19:25;;;;;;;11.38;10.27;;;19.20;1.00;;;;;;5068452;28;20482;-64
2023/07/18 06:21:51;;;;;;;9.10;8.30;;;19.30;1.00;;;;;;5065009;28;20029;-63
2023/07/18 06:24:17;;;;;;;9.75;8.95;;;19.50;99.90;;;;;;5055122;28;20454;-63
2023/07/18 06:26:48;;;;;;;5.97;5.38;;;19.50;99.90;;;;;;5054862;28;20024;-63
2023/07/18 06:29:17;;;;;;;11.80;8.68;;;19.50;99.90;;;;;;5067011;28;20506;-65
2023/07/18 06:31:43;;;;;;;7.63;6.93;;;19.70;99.90;;;;;;5057777;28;20048;-64
2023/07/18 06:34:09;;;;;;;6.03;5.45;;;19.70;99.90;;;;;;5067482;28;20094;-63
2023/07/18 06:36:34;;;;;;;5.55;4.60;;;19.70;99.90;;;;;;5062753;28;20486;-63
2023/07/18 06:39:00;;;;;;;7.60;6.90;;;19.80;78.00;;;;;;5071220;28;20116;-63
2023/07/18 06:41:25;;;;;;;6.65;6.05;;;19.90;20.90;;;;;;5069210;28;20068;-64
2023/07/18 06:43:51;;;;;;;5.82;5.30;;;20.00;1.00;;;;;;5049365;28;20044;-63
2023/07/18 06:46:17;;;;;;;5.78;5.22;;;20.00;1.00;;;;;;5068299;28;20047;-63
2023/07/18 06:48:43;;;;;;;4.93;4.43;;;20.30;1.00;;;;;;5066692;28;20029;-64
2023/07/18 06:51:08;;;;;;;4.13;3.80;;;20.20;1.00;;;;;;5060626;28;20047;-64
2023/07/18 06:53:34;;;;;;;4.20;3.80;;;20.60;1.00;;;;;;5068462;28;20040;-64
2023/07/18 06:56:00;;;;;;;3.95;3.55;;;20.40;99.90;;;;;;5057774;28;20387;-64
2023/07/18 06:58:25;;;;;;;4.80;4.20;;;20.50;99.90;;;;;;5047136;28;20044;-63
2023/07/18 07:00:52;;;;;;;4.88;4.47;;;20.60;99.90;;;;;;5046367;28;20045;-64
2023/07/18 07:03:17;;;;;;;5.53;5.00;;;20.60;99.90;;;;;;5061509;28;20036;-63
2023/07/18 07:05:44;;;;;;;4.22;3.80;;;20.70;99.90;;;;;;5069395;28;20556;-63
2023/07/18 07:08:10;;;;;;;4.70;4.22;;;20.90;99.90;;;;;;5058726;28;20048;-63
2023/07/18 07:10:40;;;;;;;5.95;3.42;;;21.10;99.90;;;;;;5040136;28;21319;-63
2023/07/18 07:13:06;;;;;;;4.70;3.33;;;21.30;99.90;;;;;;5066188;28;20119;-63
2023/07/18 07:15:32;;;;;;;3.28;2.90;;;21.30;99.90;;;;;;5065964;28;20041;-64
2023/07/18 07:17:58;;;;;;;5.57;3.90;;;21.50;99.90;;;;;;5066550;28;20463;-64
2023/07/18 07:20:25;;;;;;;4.53;2.70;;;21.60;99.90;;;;;;5064700;28;20036;-64
2023/07/18 07:22:53;;;;;;;3.08;2.28;;;21.80;99.90;;;;;;5035253;28;20045;-64
2023/07/18 07:25:19;;;;;;;2.25;1.90;;;22.00;99.90;;;;;;5040182;28;20056;-64
2023/07/18 07:27:46;;;;;;;3.33;2.10;;;22.10;99.90;;;;;;5054944;28;20533;-64
2023/07/18 07:30:15;;;;;;;4.82;2.40;;;22.20;99.90;;;;;;5049836;28;20143;-64
2023/07/18 07:32:42;;;;;;;5.28;2.40;;;22.40;99.90;;;;;;5066558;28;20083;-64
2023/07/18 07:35:08;;;;;;;5.22;2.78;;;22.50;99.90;;;;;;5060724;28;20044;-64
2023/07/18 07:37:33;;;;;;;3.30;2.42;;;22.70;99.90;;;;;;5070334;28;20047;-63
2023/07/18 07:39:59;;;;;;;3.70;2.58;;;22.70;99.90;;;;;;5068492;28;20036;-64
2023/07/18 07:42:25;;;;;;;4.25;2.92;;;22.90;99.90;;;;;;5069097;28;20063;-64
2023/07/18 07:44:50;;;;;;;4.13;3.58;;;23.00;99.60;;;;;;5060329;28;20094;-64
2023/07/18 07:47:16;;;;;;;6.70;5.30;;;22.90;71.40;;;;;;5069246;28;20048;-64
2023/07/18 07:49:41;;;;;;;7.75;6.97;;;22.80;55.90;;;;;;5070172;28;20032;-64
2023/07/18 07:52:07;;;;;;;5.35;4.30;;;23.10;60.30;;;;;;5069556;28;20040;-64
2023/07/18 07:54:32;;;;;;;8.43;7.78;;;23.00;31.20;;;;;;5070169;28;20048;-64
2023/07/18 07:56:58;;;;;;;9.50;8.70;;;23.20;26.10;;;;;;5068897;28;20495;-64
2023/07/18 07:59:24;;;;;;;13.57;12.48;;;23.00;5.00;;;;;;5067033;28;20060;-64
2023/07/18 08:01:49;;;;;;;4.22;3.70;;;23.10;6.80;;;;;;5064310;28;20487;-64
2023/07/18 08:04:15;;;;;;;18.30;16.45;;;23.10;1.20;;;;;;5053643;28;20029;-64
2023/07/18 08:06:40;;;;;;;6.43;3.72;;;23.50;21.50;;;;;;5048379;28;20033;-65
2023/07/18 08:09:06;;;;;;;10.15;9.18;;;23.90;21.20;;;;;;5070382;28;20452;-64
2023/07/18 08:11:31;;;;;;;7.50;6.78;;;24.20;14.00;;;;;;5067600;28;20038;-64
2023/07/18 08:13:57;;;;;;;4.35;2.92;;;24.40;19.10;;;;;;5063371;28;20087;-64
2023/07/18 08:16:23;;;;;;;12.23;7.63;;;24.60;18.40;;;;;;5067355;28;20044;-64
2023/07/18 08:18:48;;;;;;;4.28;3.78;;;24.80;20.10;;;;;;5066379;28;20124;-64
2023/07/18 08:21:14;;;;;;;7.68;3.90;;;25.20;26.90;;;;;;5061438;28;20105;-64
2023/07/18 08:23:39;;;;;;;10.30;4.90;;;25.40;27.00;;;;;;5069472;28;20663;-64
2023/07/18 08:26:05;;;;;;;6.30;2.80;;;25.80;31.50;;;;;;5077514;28;20036;-64
2023/07/18 08:28:31;;;;;;;9.68;4.22;;;25.90;20.70;;;;;;5065431;28;20033;-64
2023/07/18 08:30:56;;;;;;;11.32;4.38;;;25.80;14.40;;;;;;5065810;28;20045;-64
2023/07/18 08:33:24;;;;;;;8.65;3.78;;;25.90;11.40;;;;;;5065866;28;20115;-64
2023/07/18 08:35:50;;;;;;;9.80;5.70;;;26.00;6.40;;;;;;5069223;28;20045;-65
2023/07/18 08:38:15;;;;;;;12.23;6.35;;;25.70;1.00;;;;;;5069580;28;20040;-64
2023/07/18 08:40:44;;;;;;;11.13;4.78;;;25.30;1.00;;;;;;5069554;28;20501;-64
2023/07/18 08:43:14;;;;;;;11.38;3.60;;;24.90;1.00;;;;;;5069279;28;20084;-64
2023/07/18 08:45:41;;;;;;;10.30;3.60;;;24.80;1.00;;;;;;5065874;28;20037;-64
2023/07/18 08:48:07;;;;;;;12.73;6.47;;;25.00;1.00;;;;;;5060953;28;20045;-64
2023/07/18 08:50:35;;;;;;;10.45;4.57;;;25.00;1.00;;;;;;5057054;28;20041;-64
2023/07/18 08:53:04;;;;;;;10.38;3.33;;;25.30;1.00;;;;;;5057396;28;20083;-64
2023/07/18 08:55:30;;;;;;;11.13;2.92;;;25.50;1.00;;;;;;5069524;28;20045;-64
2023/07/18 08:57:57;;;;;;;11.18;3.72;;;25.70;1.00;;;;;;5051208;28;20047;-64
2023/07/18 09:00:23;;;;;;;12.27;3.05;;;25.40;1.00;;;;;;5071594;28;20066;-64
2023/07/18 09:02:48;;;;;;;10.43;3.38;;;25.20;1.00;;;;;;5063569;28;20482;-64
2023/07/18 09:05:37;;;;;;;11.20;3.20;;;24.90;1.00;;;;;;5062370;28;20037;-64
2023/07/18 09:08:05;;;;;;;9.38;3.40;;;24.80;1.00;;;;;;5072888;28;20044;-65
2023/07/18 09:10:31;;;;;;;12.68;3.50;;;25.10;1.00;;;;;;5075373;28;20048;-64
2023/07/18 09:13:02;;;;;;;10.57;3.53;;;25.20;1.00;;;;;;5093397;28;20040;-64
2023/07/18 09:15:28;;;;;;;12.00;3.42;;;25.50;1.00;;;;;;5065601;28;20052;-64
2023/07/18 09:18:02;;;;;;;11.90;3.15;;;25.70;1.00;;;;;;5051958;28;20044;-64
2023/07/18 09:20:32;;;;;;;13.45;3.20;;;25.90;1.00;;;;;;5067805;28;20980;-64
2023/07/18 09:23:05;;;;;;;9.27;2.97;;;26.10;1.00;;;;;;5065632;28;20418;-64
2023/07/18 09:25:39;;;;;;;8.27;2.45;;;26.50;1.00;;;;;;5066924;28;20063;-64
2023/07/18 09:28:09;;;;;;;5.78;2.45;;;26.30;1.00;;;;;;5073850;28;20039;-64
2023/07/18 09:30:35;;;;;;;9.55;2.60;;;26.40;1.00;;;;;;5069847;28;20133;-64
2023/07/18 09:33:05;;;;;;;9.40;2.90;;;26.40;1.00;;;;;;5071212;28;20090;-64
2023/07/18 09:35:43;;;;;;;14.18;3.25;;;26.50;1.00;;;;;;5053065;28;20502;-64
2023/07/18 09:38:10;;;;;;;6.82;2.85;;;26.70;1.00;;;;;;5043132;28;20589;-64
2023/07/18 09:40:37;;;;;;;6.43;2.47;;;26.90;1.00;;;;;;5058466;28;20044;-64
2023/07/18 09:43:03;;;;;;;7.72;2.72;;;26.80;1.00;;;;;;5070641;28;20033;-64
2023/07/18 09:45:30;;;;;;;8.32;2.83;;;26.80;1.00;;;;;;5070347;28;20048;-64
2023/07/18 09:47:57;;;;;;;13.50;2.72;;;26.80;1.00;;;;;;5068530;28;20403;-64
2023/07/18 09:50:25;;;;;;;9.07;2.88;;;26.60;1.00;;;;;;5071948;28;20033;-64
2023/07/18 09:52:54;;;;;;;8.40;3.17;;;26.70;1.00;;;;;;5072345;28;20447;-64
2023/07/18 09:55:27;;;;;;;7.03;3.00;;;26.70;1.00;;;;;;5063800;28;20036;-64
2023/07/18 09:57:55;;;;;;;8.63;2.92;;;26.70;1.00;;;;;;5068888;28;20040;-64
2023/07/18 10:00:23;;;;;;;9.38;2.92;;;26.70;1.00;;;;;;5070870;28;20096;-64
2023/07/18 10:02:49;;;;;;;8.32;3.00;;;26.80;1.00;;;;;;5087445;28;20482;-64
2023/07/18 10:05:15;;;;;;;7.97;3.15;;;26.80;1.00;;;;;;5068412;28;20040;-64
2023/07/18 10:07:42;;;;;;;12.90;3.10;;;26.70;1.00;;;;;;5071715;28;20163;-64
2023/07/18 10:10:09;;;;;;;12.07;3.20;;;26.80;1.00;;;;;;5071220;28;20076;-64
2023/07/18 10:13:00;;;;;;;14.07;3.80;;;26.80;1.00;;;;;;5058737;28;20372;-64
2023/07/18 10:15:27;;;;;;;11.20;3.55;;;26.80;1.00;;;;;;5057586;28;20043;-64
2023/07/18 10:17:52;;;;;;;14.50;3.70;;;26.90;1.00;;;;;;5068479;28;20094;-64
2023/07/18 10:20:19;;;;;;;16.10;3.47;;;26.80;1.00;;;;;;5070892;28;20542;-64
2023/07/18 10:22:58;;;;;;;11.93;3.35;;;26.70;1.00;;;;;;5070085;28;20036;-64
2023/07/18 10:25:26;;;;;;;9.88;3.20;;;26.60;1.00;;;;;;5067810;28;20040;-64
2023/07/18 10:27:52;;;;;;;12.27;3.58;;;26.60;1.00;;;;;;5048346;28;20032;-65
2023/07/18 10:30:19;;;;;;;10.10;3.42;;;26.70;1.00;;;;;;5063736;28;20035;-64
2023/07/18 10:32:53;;;;;;;11.85;3.78;;;26.60;1.00;;;;;;5071377;28;20045;-64
2023/07/18 10:35:20;;;;;;;15.85;4.10;;;26.40;1.00;;;;;;5069234;28;20039;-64
2023/07/18 10:37:52;;;;;;;11.30;3.25;;;26.10;1.00;;;;;;5059853;28;20043;-64
2023/07/18 10:40:33;;;;;;;13.50;3.70;;;25.80;1.00;;;;;;5069256;28;20538;-64
2023/07/18 10:42:59;;;;;;;12.77;3.78;;;25.60;1.00;;;;;;5069073;28;20097;-64
2023/07/18 10:45:24;;;;;;;12.02;3.75;;;25.30;1.00;;;;;;5070928;28;20041;-64
2023/07/18 10:47:50;;;;;;;12.77;3.90;;;25.20;1.00;;;;;;5061917;28;20029;-64
2023/07/18 10:50:15;;;;;;;19.17;7.22;;;24.90;1.00;;;;;;5070999;28;20029;-64
2023/07/18 10:52:41;;;;;;;12.00;4.15;;;25.00;1.00;;;;;;5071304;28;20045;-64
2023/07/18 10:55:07;;;;;;;13.95;4.35;;;24.90;1.00;;;;;;5071084;28;20043;-64
2023/07/18 10:57:35;;;;;;;14.93;3.65;;;25.00;1.00;;;;;;5062445;28;20410;-64
2023/07/18 11:00:04;;;;;;;14.02;4.13;;;25.30;1.00;;;;;;5068162;28;20060;-64
2023/07/18 11:02:37;;;;;;;12.90;3.90;;;25.40;1.00;;;;;;5069784;28;20551;-64
2023/07/18 11:05:10;;;;;;;13.57;3.65;;;25.60;1.00;;;;;;5063421;28;20047;-64
2023/07/18 11:07:45;;;;;;;11.82;3.58;;;25.50;1.00;;;;;;5069711;28;20036;-64
2023/07/18 11:10:13;;;;;;;11.70;4.00;;;25.50;1.00;;;;;;5055441;28;20070;-64
2023/07/18 11:12:39;;;;;;;12.20;3.55;;;25.50;1.00;;;;;;5065317;28;20468;-64
2023/07/18 11:15:07;;;;;;;12.20;3.35;;;25.60;1.00;;;;;;5069967;28;20041;-64
2023/07/18 11:17:33;;;;;;;20.02;3.00;;;25.60;1.00;;;;;;5068416;28;20079;-64
2023/07/18 11:19:59;;;;;;;10.50;3.35;;;25.60;1.00;;;;;;5069210;28;20032;-64
2023/07/18 11:22:25;;;;;;;14.43;3.40;;;25.70;1.00;;;;;;5063411;28;20528;-64
2023/07/18 11:24:51;;;;;;;11.95;3.05;;;25.50;1.00;;;;;;5070058;28;20071;-64
2023/07/18 11:27:22;;;;;;;9.10;2.83;;;25.40;1.00;;;;;;5058621;28;20035;-64
2023/07/18 11:30:03;;;;;;;15.70;3.33;;;25.30;1.00;;;;;;5059495;28;20561;-64
2023/07/18 11:32:40;;;;;;;13.15;3.25;;;24.70;1.00;;;;;;5056394;28;20039;-64
2023/07/18 11:35:26;;;;;;;10.77;3.40;;;24.60;1.00;;;;;;5070352;28;20036;-64
2023/07/18 11:37:53;;;;;;;;;;;24.40;1.00;;;;;;5049454;28;20041;-64
2023/07/18 11:40:21;;;;;;;14.05;3.78;;;24.20;1.00;;;;;;5069982;28;20297;-64
2023/07/18 11:43:00;;;;;;;9.60;3.17;;;24.10;1.00;;;;;;5052129;28;20387;-64
2023/07/18 11:45:27;;;;;;;7.63;3.00;;;24.10;1.00;;;;;;5050137;28;20076;-64
2023/07/18 11:47:53;;;;;;;14.27;4.45;;;23.90;1.00;;;;;;5054980;28;20045;-64
2023/07/18 11:50:20;;;;;;;34.33;31.27;;;23.80;1.00;;;;;;5071174;28;20465;-64
2023/07/18 11:52:48;;;;;;;25.65;23.00;;;23.70;1.00;;;;;;5090351;28;20040;-64
2023/07/18 11:55:15;;;;;;;15.35;5.70;;;23.70;1.00;;;;;;5072758;28;20039;-64
2023/07/18 11:57:41;;;;;;;21.38;14.48;;;23.70;1.00;;;;;;5069721;28;20037;-64
2023/07/18 12:00:08;;;;;;;17.85;13.05;;;23.60;1.00;;;;;;5056446;28;20523;-64
2023/07/18 12:02:34;;;;;;;16.33;10.05;;;23.50;1.00;;;;;;5069432;28;20076;-64
2023/07/18 12:05:00;;;;;;;11.77;7.63;;;23.50;1.00;;;;;;5070100;28;20083;-65
2023/07/18 12:07:26;;;;;;;14.50;5.80;;;23.60;1.00;;;;;;5062112;28;20036;-65
2023/07/18 12:09:52;;;;;;;13.73;7.35;;;23.60;1.00;;;;;;5051471;28;20029;-64
2023/07/18 12:12:19;;;;;;;117.97;108.78;;;23.40;1.00;;;;;;5064944;28;20465;-64
2023/07/18 12:14:44;;;;;;;44.53;40.40;;;23.40;1.00;;;;;;5063705;28;20045;-64
2023/07/18 12:17:10;;;;;;;45.55;41.72;;;23.30;1.00;;;;;;5068121;28;20544;-64
2023/07/18 12:19:36;;;;;;;56.10;51.33;;;23.40;3.30;;;;;;5067026;28;20482;-65
2023/07/18 12:22:02;;;;;;;25.23;22.88;;;23.60;5.20;;;;;;5049551;28;20051;-64
2023/07/18 12:24:27;;;;;;;61.70;56.78;;;23.60;2.50;;;;;;5067356;28;20040;-64
2023/07/18 12:26:53;;;;;;;86.20;79.82;;;23.60;2.70;;;;;;5057935;28;20036;-64
2023/07/18 12:29:18;;;;;;;41.13;37.63;;;23.60;5.60;;;;;;5058005;28;20049;-64
2023/07/18 12:31:46;;;;;;;58.40;53.83;;;23.50;11.80;;;;;;5061965;28;20045;-64
2023/07/18 12:34:13;;;;;;;49.92;45.50;;;23.70;11.50;;;;;;5055563;28;20072;-64
2023/07/18 12:36:39;;;;;;;54.30;49.35;;;23.40;18.20;;;;;;5072995;28;20044;-64